Time;durP1;ratioP1;P1;durP2;ratioP2;P2;SDS_P1;SDS_P2;PMS_P1;PMS_P2;Temp;Humidity;BMP_temperature;BMP_pressure;BME280_temperature;BME280_humidity;BME280_pressure;Samples;Min_cycle;Max_cycle;Signal;HPM_P1;HPM_P2
2023/09/10 00:00:28;;;;;;;28.65;25.58;;;;;;;21.18;100.00;101398.03;5032098;28;20021;-75
2023/09/10 00:02:54;;;;;;;30.15;26.65;;;;;;;21.04;100.00;101389.38;5031909;28;20030;-75
2023/09/10 00:05:19;;;;;;;30.90;27.58;;;;;;;21.08;100.00;101402.28;5031093;28;20100;-75
2023/09/10 00:07:45;;;;;;;32.55;29.15;;;;;;;21.02;100.00;101395.09;5031025;28;20036;-76
2023/09/10 00:10:10;;;;;;;32.65;27.27;;;;;;;20.97;100.00;101384.09;5034244;28;20048;-75
2023/09/10 00:12:36;;;;;;;32.85;29.17;;;;;;;21.06;100.00;101409.13;5045427;28;20180;-75
2023/09/10 00:15:02;;;;;;;34.50;30.33;;;;;;;20.96;100.00;101395.28;5031707;28;20029;-75
2023/09/10 00:17:27;;;;;;;32.75;29.00;;;;;;;21.02;100.00;101400.56;5014288;28;20045;-75
2023/09/10 00:19:53;;;;;;;33.88;30.02;;;;;;;21.02;100.00;101399.75;5014000;28;20041;-75
2023/09/10 00:22:18;;;;;;;39.15;31.25;;;;;;;20.92;100.00;101394.97;5031952;28;20369;-75
2023/09/10 00:24:43;;;;;;;40.03;32.42;;;;;;;20.99;100.00;101408.47;5031634;28;20499;-75
2023/09/10 00:27:09;;;;;;;36.55;30.95;;;;;;;20.89;100.00;101398.22;5034295;28;20032;-75
2023/09/10 00:29:34;;;;;;;35.45;31.13;;;;;;;20.94;100.00;101411.16;5032050;28;20033;-75
2023/09/10 00:32:00;;;;;;;33.25;29.60;;;;;;;20.92;100.00;101416.84;5014101;28;20038;-75
2023/09/10 00:34:29;;;;;;;37.20;30.33;;;;;;;20.89;100.00;101420.09;5032511;28;20032;-76
2023/09/10 00:36:55;;;;;;;37.40;31.10;;;;;;;20.85;100.00;101417.03;5014437;28;20033;-76
2023/09/10 00:39:20;;;;;;;44.08;34.30;;;;;;;20.84;100.00;101415.41;5030713;28;20037;-75
2023/09/10 00:41:46;;;;;;;39.10;32.72;;;;;;;20.72;100.00;101400.19;5014082;28;20160;-75
2023/09/10 00:44:11;;;;;;;41.28;34.35;;;;;;;20.80;100.00;101410.69;4998126;28;20503;-75
2023/09/10 00:46:37;;;;;;;36.75;32.60;;;;;;;20.81;100.00;101413.16;5030177;28;20052;-75
2023/09/10 00:49:02;;;;;;;38.10;31.40;;;;;;;20.79;100.00;101406.28;5031452;28;20047;-75
2023/09/10 00:51:29;;;;;;;40.78;34.97;;;;;;;20.80;100.00;101402.50;5013644;28;20084;-75
2023/09/10 00:53:55;;;;;;;49.00;39.65;;;;;;;20.81;100.00;101404.13;5031545;28;20036;-75
2023/09/10 00:56:21;;;;;;;41.83;34.60;;;;;;;20.84;100.00;101406.38;5013696;28;20030;-75
2023/09/10 00:58:47;;;;;;;43.58;35.28;;;;;;;20.85;100.00;101405.28;5032389;28;20056;-75
2023/09/10 01:01:14;;;;;;;42.25;36.50;;;;;;;20.77;100.00;101397.53;5030591;28;20104;-75
2023/09/10 01:03:40;;;;;;;45.47;37.63;;;;;;;20.80;100.00;101399.75;5014003;28;20032;-75
2023/09/10 01:06:07;;;;;;;42.05;37.42;;;;;;;20.73;100.00;101401.81;5013744;28;20029;-75
2023/09/10 01:08:32;;;;;;;44.70;35.67;;;;;;;20.66;100.00;101402.00;5046422;28;20091;-75
2023/09/10 01:11:16;;;;;;;44.72;37.58;;;;;;;20.72;100.00;101402.91;5031142;28;20034;-75
2023/09/10 01:13:57;;;;;;;41.08;34.55;;;;;;;20.70;100.00;101407.81;5046249;28;20033;-75
2023/09/10 01:16:35;;;;;;;43.85;36.80;;;;;;;20.62;100.00;101409.88;5030244;28;20091;-75
2023/09/10 01:19:35;;;;;;;46.28;37.03;;;;;;;20.54;100.00;101396.66;5031304;28;20100;-75
2023/09/10 01:22:13;;;;;;;42.22;35.08;;;;;;;20.52;100.00;101401.53;5020344;28;20408;-75
2023/09/10 01:24:50;;;;;;;45.20;36.95;;;;;;;20.52;100.00;101407.00;5034439;28;20028;-75
2023/09/10 01:27:16;;;;;;;40.30;32.50;;;;;;;20.51;100.00;101410.81;5033775;28;20026;-75
2023/09/10 01:29:42;;;;;;;49.53;38.20;;;;;;;20.47;100.00;101408.81;5034698;28;20034;-75
2023/09/10 01:32:21;;;;;;;46.05;35.55;;;;;;;20.31;100.00;101388.63;5033610;28;20025;-75
2023/09/10 01:34:59;;;;;;;44.97;36.38;;;;;;;20.40;100.00;101393.41;5033224;28;20025;-75
2023/09/10 01:37:45;;;;;;;42.17;34.45;;;;;;;20.50;100.00;101413.78;5033553;28;20025;-76
2023/09/10 01:40:19;;;;;;;53.58;41.75;;;;;;;20.52;100.00;101403.44;5035063;28;20036;-75
2023/09/10 01:42:48;;;;;;;42.90;36.63;;;;;;;20.43;100.00;101397.56;5032979;28;20583;-75
2023/09/10 01:45:14;;;;;;;49.15;39.78;;;;;;;20.31;100.00;101370.31;5033109;28;20029;-75
2023/09/10 01:47:39;;;;;;;49.15;39.67;;;;;;;20.46;100.00;101397.03;5033316;28;20025;-75
2023/09/10 01:50:06;;;;;;;48.15;39.97;;;;;;;20.54;100.00;101404.03;5034445;28;20228;-75
2023/09/10 01:52:32;;;;;;;50.17;41.70;;;;;;;20.55;100.00;101403.78;5033783;28;20056;-75
2023/09/10 01:54:57;;;;;;;54.30;44.17;;;;;;;20.56;100.00;101401.84;5033144;28;20033;-76
2023/09/10 01:57:23;;;;;;;48.45;39.50;;;;;;;20.54;100.00;101407.59;5034198;28;20036;-76
2023/09/10 01:59:48;;;;;;;56.22;41.45;;;;;;;20.50;100.00;101398.22;5017440;28;20124;-75
2023/09/10 02:02:15;;;;;;;57.40;43.97;;;;;;;20.50;100.00;101400.94;5049470;28;20033;-75
2023/09/10 02:04:40;;;;;;;59.25;43.05;;;;;;;20.46;100.00;101396.22;5033599;28;20083;-75
2023/09/10 02:07:06;;;;;;;52.17;41.60;;;;;;;20.44;100.00;101393.75;5016417;28;20510;-75
2023/09/10 02:09:31;;;;;;;55.30;41.75;;;;;;;20.39;100.00;101390.91;5032464;28;20029;-76
2023/09/10 02:11:57;;;;;;;50.90;40.95;;;;;;;20.39;100.00;101388.19;5032091;28;20038;-75
2023/09/10 02:14:23;;;;;;;51.08;39.40;;;;;;;20.36;100.00;101399.63;5015653;28;20407;-75
2023/09/10 02:16:49;;;;;;;60.75;43.28;;;;;;;20.27;100.00;101391.03;5032419;28;20039;-75
2023/09/10 02:19:14;;;;;;;54.50;42.33;;;;;;;20.29;100.00;101407.16;5033648;28;20029;-75
2023/09/10 02:21:40;;;;;;;66.93;47.22;;;;;;;20.27;100.00;101401.13;5032284;28;20325;-75
2023/09/10 02:24:05;;;;;;;58.10;45.25;;;;;;;20.14;100.00;101377.69;5032383;28;20117;-75
2023/09/10 02:26:31;;;;;;;58.38;43.45;;;;;;;20.26;100.00;101402.19;5032063;28;20376;-75
2023/09/10 02:28:56;;;;;;;67.90;48.38;;;;;;;20.26;100.00;101402.19;5032083;28;20033;-75
2023/09/10 02:31:22;;;;;;;53.38;41.00;;;;;;;20.21;100.00;101399.41;5015755;28;20053;-76
2023/09/10 02:33:47;;;;;;;53.22;41.55;;;;;;;20.18;100.00;101401.53;5033584;28;20104;-75
2023/09/10 02:36:13;;;;;;;55.65;43.30;;;;;;;20.07;100.00;101388.78;5033247;28;20029;-76
2023/09/10 02:38:38;;;;;;;61.05;46.25;;;;;;;20.15;100.00;101391.09;5033323;28;20041;-75
2023/09/10 02:41:04;;;;;;;55.58;41.92;;;;;;;20.13;100.00;101398.75;5034049;28;20029;-76
2023/09/10 02:43:29;;;;;;;45.78;36.95;;;;;;;20.01;100.00;101395.25;5018619;28;20034;-76
2023/09/10 02:45:55;;;;;;;62.58;47.00;;;;;;;19.97;100.00;101406.91;5039695;28;20079;-75
2023/09/10 02:48:20;;;;;;;72.55;54.08;;;;;;;20.03;100.00;101404.00;5056128;28;20013;-75
2023/09/10 02:50:46;;;;;;;66.45;52.53;;;;;;;20.13;100.00;101406.94;5055343;28;20037;-75
2023/09/10 02:53:11;;;;;;;55.75;44.38;;;;;;;20.06;100.00;101403.50;4999557;28;20037;-76
2023/09/10 02:55:37;;;;;;;71.65;55.05;;;;;;;20.15;100.00;101410.22;5019187;28;20128;-75
2023/09/10 02:58:02;;;;;;;50.40;42.03;;;;;;;20.15;100.00;101402.03;5037384;28;20228;-76
2023/09/10 03:00:28;;;;;;;71.15;51.97;;;;;;;20.14;100.00;101400.38;5034534;28;20483;-75
2023/09/10 03:02:57;;;;;;;63.05;46.05;;;;;;;20.04;100.00;101383.00;5031671;28;20029;-76
2023/09/10 03:05:23;;;;;;;75.78;54.42;;;;;;;20.11;100.00;101406.34;5031260;28;20710;-76
2023/09/10 03:07:53;;;;;;;58.78;44.85;;;;;;;20.10;100.00;101404.69;5031604;28;20033;-75
2023/09/10 03:10:19;;;;;;;53.22;43.05;;;;;;;20.06;100.00;101405.41;5031771;28;20036;-75
2023/09/10 03:12:44;;;;;;;65.68;47.80;;;;;;;20.05;100.00;101403.78;5033486;28;20458;-76
2023/09/10 03:15:10;;;;;;;59.15;45.03;;;;;;;19.87;100.00;101383.81;5032713;28;20116;-75
2023/09/10 03:17:35;;;;;;;66.85;51.50;;;;;;;19.96;100.00;101397.88;5014755;28;20029;-76
2023/09/10 03:20:02;;;;;;;95.85;69.20;;;;;;;20.05;100.00;101404.59;5015199;28;20041;-75
2023/09/10 03:22:27;;;;;;;103.95;72.07;;;;;;;20.07;100.00;101394.25;5031401;28;20075;-75
2023/09/10 03:24:53;;;;;;;95.63;69.82;;;;;;;20.11;100.00;101403.59;5032389;28;20491;-75
2023/09/10 03:27:18;;;;;;;108.47;78.57;;;;;;;20.18;100.00;101407.00;5014864;28;20037;-75
2023/09/10 03:29:44;;;;;;;117.97;79.15;;;;;;;20.26;100.00;101402.19;5014953;28;20132;-76
2023/09/10 03:32:10;;;;;;;119.25;82.30;;;;;;;20.31;100.00;101402.28;5032430;28;20025;-75
2023/09/10 03:34:35;;;;;;;124.53;84.82;;;;;;;20.37;100.00;101404.03;5033582;28;20136;-76
2023/09/10 03:37:03;;;;;;;139.10;89.78;;;;;;;20.31;100.00;101394.09;5032007;28;20037;-75
2023/09/10 03:39:28;;;;;;;139.77;89.88;;;;;;;20.46;100.00;101402.50;5014776;28;20048;-75
2023/09/10 03:41:54;;;;;;;154.35;95.90;;;;;;;20.52;100.00;101408.91;5031046;28;20404;-75
2023/09/10 03:44:20;;;;;;;151.57;95.13;;;;;;;20.55;100.00;101403.78;5030972;28;20057;-75
2023/09/10 03:46:45;;;;;;;150.43;94.78;;;;;;;20.61;100.00;101399.22;5030932;28;20044;-75
2023/09/10 03:49:11;;;;;;;170.95;104.68;;;;;;;20.65;100.00;101406.66;5032026;28;20029;-75
2023/09/10 03:51:36;;;;;;;351.40;107.90;;;;;;;20.55;100.00;101400.22;5031752;28;20076;-75
2023/09/10 03:54:02;;;;;;;580.92;103.47;;;;;;;20.60;100.00;101409.31;5030627;28;20036;-75
2023/09/10 03:56:27;;;;;;;514.90;90.45;;;;;;;20.54;100.00;101418.53;5030449;28;20029;-75
2023/09/10 03:58:52;;;;;;;499.55;100.75;;;;;;;20.23;100.00;101370.75;5014079;28;20072;-75
2023/09/10 04:01:18;;;;;;;358.92;89.75;;;;;;;20.63;100.00;101419.75;4997751;28;20428;-75
2023/09/10 04:03:43;;;;;;;394.23;87.50;;;;;;;20.58;100.00;101411.47;5031641;28;20021;-75
2023/09/10 04:06:09;;;;;;;328.77;87.20;;;;;;;20.57;100.00;101423.50;5031569;28;20519;-75
2023/09/10 04:08:34;;;;;;;257.20;78.05;;;;;;;20.58;100.00;101422.41;5030542;28;20044;-75
2023/09/10 04:11:00;;;;;;;298.88;85.68;;;;;;;20.53;100.00;101427.81;5030378;28;20030;-75
2023/09/10 04:13:25;;;;;;;287.58;83.32;;;;;;;20.43;100.00;101433.09;5030110;28;20350;-75
2023/09/10 04:15:51;;;;;;;263.52;77.50;;;;;;;20.38;100.00;101422.91;5030174;28;20523;-75
2023/09/10 04:18:17;;;;;;;237.63;72.90;;;;;;;20.35;100.00;101431.59;5030281;28;20463;-75
2023/09/10 04:20:43;;;;;;;230.10;70.15;;;;;;;20.38;100.00;101427.53;5031162;28;20133;-75
2023/09/10 04:23:08;;;;;;;186.80;63.50;;;;;;;20.41;100.00;101429.78;5013796;28;20060;-75
2023/09/10 04:25:34;;;;;;;177.93;62.22;;;;;;;20.41;100.00;101427.88;5030354;28;20381;-75
2023/09/10 04:27:59;;;;;;;191.65;65.80;;;;;;;20.16;100.00;101386.47;5031839;28;20396;-75
2023/09/10 04:30:25;;;;;;;202.25;67.07;;;;;;;20.46;100.00;101434.47;5031286;28;20506;-76
2023/09/10 04:32:50;;;;;;;190.35;65.65;;;;;;;20.46;100.00;101432.56;5031739;28;20036;-75
2023/09/10 04:35:16;;;;;;;205.20;70.90;;;;;;;20.45;100.00;101433.66;5031669;28;20030;-75
2023/09/10 04:37:42;;;;;;;208.23;71.55;;;;;;;20.54;100.00;101434.94;5030607;28;20492;-75
2023/09/10 04:40:09;;;;;;;217.68;74.47;;;;;;;20.61;100.00;101432.84;5013849;28;20404;-75
2023/09/10 04:42:35;;;;;;;208.40;73.45;;;;;;;20.63;100.00;101427.97;5030132;28;20439;-75
2023/09/10 04:45:01;;;;;;;295.63;82.35;;;;;;;20.58;100.00;101425.13;5031825;28;20075;-75
2023/09/10 04:47:26;;;;;;;438.75;88.80;;;;;;;20.53;100.00;101436.03;5030586;28;20025;-75
2023/09/10 04:49:51;;;;;;;394.30;81.68;;;;;;;20.49;100.00;101436.72;5030295;28;20432;-75
2023/09/10 04:52:17;;;;;;;353.67;77.72;;;;;;;20.37;100.00;101445.84;5031155;28;20046;-75
2023/09/10 04:54:42;;;;;;;347.33;76.45;;;;;;;20.38;100.00;101444.75;5030219;28;20038;-75
2023/09/10 04:57:10;;;;;;;283.17;68.75;;;;;;;20.36;100.00;101443.34;5031501;28;20137;-75
2023/09/10 04:59:35;;;;;;;300.73;70.45;;;;;;;20.33;100.00;101441.09;5034252;28;20048;-75
2023/09/10 05:02:01;;;;;;;243.38;62.55;;;;;;;20.31;100.00;101446.00;5034011;28;20033;-75
2023/09/10 05:04:27;;;;;;;230.07;60.75;;;;;;;20.39;100.00;101442.84;5035060;28;20025;-75
2023/09/10 05:06:52;;;;;;;218.18;61.28;;;;;;;20.40;100.00;101452.72;5034673;28;20057;-75
2023/09/10 05:09:18;;;;;;;203.23;60.30;;;;;;;20.33;100.00;101449.31;5035031;28;20033;-75
2023/09/10 05:11:43;;;;;;;212.75;60.25;;;;;;;20.39;100.00;101451.88;5033691;28;20040;-75
2023/09/10 05:14:09;;;;;;;169.55;54.03;;;;;;;20.32;100.00;101455.88;5033797;28;20040;-75
2023/09/10 05:16:34;;;;;;;163.25;51.45;;;;;;;20.30;100.00;101452.56;5034912;28;20399;-75
2023/09/10 05:19:00;;;;;;;170.35;50.30;;;;;;;20.17;100.00;101449.06;5001170;28;20033;-75
2023/09/10 05:21:25;;;;;;;165.88;48.90;;;;;;;20.19;100.00;101457.84;5033531;28;20108;-75
2023/09/10 05:23:51;;;;;;;181.38;50.10;;;;;;;20.25;100.00;101460.66;5034847;28;20022;-75
2023/09/10 05:26:16;;;;;;;180.82;51.38;;;;;;;20.27;100.00;101461.25;5033494;28;20026;-75
2023/09/10 05:28:41;;;;;;;155.00;50.60;;;;;;;20.26;100.00;101446.75;5033440;28;20107;-75
2023/09/10 05:31:08;;;;;;;142.18;47.10;;;;;;;20.32;100.00;101456.69;5035383;28;20057;-75
2023/09/10 05:33:34;;;;;;;144.23;49.67;;;;;;;20.34;100.00;101461.91;5017466;28;20496;-75
2023/09/10 05:36:00;;;;;;;125.15;46.35;;;;;;;20.39;100.00;101459.25;5033797;28;20547;-75
2023/09/10 05:38:26;;;;;;;122.57;46.83;;;;;;;20.46;100.00;101462.63;5032862;28;20124;-75
2023/09/10 05:40:52;;;;;;;130.23;46.50;;;;;;;20.34;100.00;101451.00;5049688;28;20036;-76
2023/09/10 05:43:18;;;;;;;125.85;46.47;;;;;;;20.46;100.00;101468.09;5033320;28;20443;-75
2023/09/10 05:45:45;;;;;;;128.63;48.13;;;;;;;20.48;100.00;101465.97;5035589;28;20037;-75
2023/09/10 05:48:11;;;;;;;127.20;47.47;;;;;;;20.51;100.00;101464.69;5034316;28;20036;-75
2023/09/10 05:50:39;;;;;;;141.30;48.42;;;;;;;20.54;100.00;101470.47;5034071;28;20476;-75
2023/09/10 05:53:05;;;;;;;126.07;46.40;;;;;;;20.46;100.00;101450.88;5034564;28;20048;-75
2023/09/10 05:55:30;;;;;;;130.57;48.38;;;;;;;20.52;100.00;101464.41;5033084;28;20073;-75
2023/09/10 05:57:56;;;;;;;131.55;48.88;;;;;;;20.49;100.00;101461.31;5034247;28;20043;-75
2023/09/10 06:00:22;;;;;;;113.80;45.28;;;;;;;20.47;100.00;101471.69;5033100;28;20040;-75
2023/09/10 06:02:49;;;;;;;116.20;44.35;;;;;;;20.47;100.00;101464.31;5034212;28;20026;-75
2023/09/10 06:05:16;;;;;;;128.52;44.95;;;;;;;20.51;100.00;101465.50;5034220;28;20483;-75
2023/09/10 06:07:41;;;;;;;132.30;45.75;;;;;;;20.46;100.00;101462.63;5032912;28;20246;-75
2023/09/10 06:10:09;;;;;;;134.60;48.33;;;;;;;20.46;100.00;101476.31;5032054;28;20037;-75
2023/09/10 06:12:38;;;;;;;113.95;45.10;;;;;;;20.52;100.00;101475.34;5049780;28;20234;-75
2023/09/10 06:15:05;;;;;;;107.28;41.80;;;;;;;20.46;100.00;101470.03;5032727;28;20025;-75
2023/09/10 06:17:32;;;;;;;92.72;39.17;;;;;;;20.51;100.00;101479.16;5032952;28;20078;-75
2023/09/10 06:19:57;;;;;;;86.90;39.58;;;;;;;20.48;100.00;101476.91;5034127;28;20475;-75
2023/09/10 06:22:23;;;;;;;93.55;37.60;;;;;;;20.37;100.00;101464.16;5033778;28;20032;-75
2023/09/10 06:24:49;;;;;;;112.18;39.50;;;;;;;20.19;100.00;101429.69;5016120;28;20029;-75
2023/09/10 06:27:14;;;;;;;114.45;38.95;;;;;;;20.46;100.00;101473.56;5032869;28;20033;-75
2023/09/10 06:29:40;;;;;;;119.60;37.17;;;;;;;20.43;100.00;101476.84;5034076;28;20040;-75
2023/09/10 06:32:07;;;;;;;120.13;37.22;;;;;;;20.44;100.00;101475.75;5049222;28;20120;-75
2023/09/10 06:34:33;;;;;;;117.90;37.95;;;;;;;20.41;100.00;101477.06;5032508;28;20525;-75
2023/09/10 06:36:59;;;;;;;119.80;38.17;;;;;;;20.45;100.00;101476.56;5015919;28;20037;-75
2023/09/10 06:39:25;;;;;;;126.22;37.92;;;;;;;20.51;100.00;101476.44;5033639;28;20618;-75
2023/09/10 06:41:53;;;;;;;119.45;36.97;;;;;;;20.51;100.00;101481.09;5015803;28;20029;-75
2023/09/10 06:44:20;;;;;;;101.22;35.00;;;;;;;20.54;100.00;101475.13;5032546;28;20427;-75
2023/09/10 06:46:45;;;;;;;103.88;35.40;;;;;;;20.53;100.00;101481.66;5032501;28;20072;-75
2023/09/10 06:49:11;;;;;;;111.43;36.03;;;;;;;20.54;100.00;101480.59;5034239;28;20418;-75
2023/09/10 06:51:36;;;;;;;122.30;36.85;;;;;;;20.28;100.00;101443.78;5033339;28;20081;-75
2023/09/10 06:54:02;;;;;;;134.20;39.53;;;;;;;20.49;100.00;101480.47;5034388;28;20029;-75
2023/09/10 06:56:29;;;;;;;131.18;39.10;;;;;;;20.48;100.00;101479.63;5032507;28;20037;-75
2023/09/10 06:58:54;;;;;;;118.57;39.10;;;;;;;20.46;100.00;101476.31;5031918;28;20117;-75
2023/09/10 07:01:21;;;;;;;134.10;40.22;;;;;;;20.44;100.00;101481.22;5033975;28;20031;-75
2023/09/10 07:03:49;;;;;;;154.27;42.85;;;;;;;20.50;100.00;101490.34;5015653;28;20033;-75
2023/09/10 07:06:14;;;;;;;138.32;40.30;;;;;;;20.53;100.00;101487.97;5031842;28;20120;-75
2023/09/10 07:08:40;;;;;;;121.93;39.78;;;;;;;20.55;100.00;101496.72;5031737;28;20477;-75
2023/09/10 07:11:05;;;;;;;132.68;40.45;;;;;;;20.57;100.00;101497.31;5033044;28;20036;-75
2023/09/10 07:13:31;;;;;;;158.32;40.95;;;;;;;20.50;100.00;101506.75;5031730;28;20072;-75
2023/09/10 07:15:56;;;;;;;158.13;43.05;;;;;;;20.44;100.00;101492.16;5017028;28;20484;-75
2023/09/10 07:18:22;;;;;;;159.30;43.35;;;;;;;20.37;100.00;101510.63;4998492;28;20034;-75
2023/09/10 07:20:48;;;;;;;130.27;42.05;;;;;;;20.36;100.00;101517.16;5031969;28;20030;-75
2023/09/10 07:23:13;;;;;;;132.23;42.47;;;;;;;20.29;100.00;101520.03;5031559;28;20034;-75
2023/09/10 07:25:39;;;;;;;115.85;40.10;;;;;;;20.29;100.00;101521.94;5031858;28;20026;-75
2023/09/10 07:28:06;;;;;;;122.05;40.85;;;;;;;20.25;100.00;101513.41;5031308;28;20021;-75
2023/09/10 07:30:31;;;;;;;100.18;39.08;;;;;;;20.16;100.00;101521.19;5031238;28;20053;-75
2023/09/10 07:32:57;;;;;;;96.45;39.00;;;;;;;20.17;100.00;101520.13;5031461;28;20124;-75
2023/09/10 07:35:22;;;;;;;94.30;36.92;;;;;;;20.21;100.00;101525.91;5032570;28;20072;-75
2023/09/10 07:37:48;;;;;;;94.05;35.63;;;;;;;20.23;100.00;101531.13;5014825;28;20392;-75
2023/09/10 07:40:14;;;;;;;87.32;35.47;;;;;;;20.26;100.00;101536.09;5031269;28;20033;-75
2023/09/10 07:42:40;;;;;;;89.68;36.42;;;;;;;20.19;100.00;101528.88;5016146;28;20404;-75
2023/09/10 07:45:13;;;;;;;74.55;32.80;;;;;;;20.09;100.00;101528.69;5033079;28;20058;-75
2023/09/10 07:47:39;;;;;;;70.93;32.15;;;;;;;20.15;100.00;101538.66;5034170;28;20025;-75
2023/09/10 07:50:04;;;;;;;73.38;32.70;;;;;;;20.16;100.00;101543.06;5032382;28;20044;-75
2023/09/10 07:52:30;;;;;;;68.93;32.42;;;;;;;20.10;100.00;101522.19;5032034;28;20401;-75
2023/09/10 07:54:55;;;;;;;83.05;35.90;;;;;;;20.16;100.00;101529.41;5014972;28;20087;-75
2023/09/10 07:57:21;;;;;;;78.47;34.95;;;;;;;20.26;100.00;101528.72;5031003;28;20072;-75
2023/09/10 07:59:46;;;;;;;96.20;38.30;;;;;;;20.31;100.00;101523.38;5030898;28;20053;-75
2023/09/10 08:02:12;;;;;;;87.90;37.80;;;;;;;20.31;100.00;101525.28;4997918;28;20025;-75
2023/09/10 08:04:37;;;;;;;89.88;37.75;;;;;;;20.39;100.00;101530.31;5032034;28;20456;-75
2023/09/10 08:07:04;;;;;;;86.82;37.75;;;;;;;20.48;100.00;101528.84;5030812;28;20025;-75
2023/09/10 08:09:31;;;;;;;80.22;36.45;;;;;;;20.64;100.00;101532.69;5032340;28;20117;-75
2023/09/10 08:11:57;;;;;;;78.55;34.47;;;;;;;20.71;100.00;101535.28;5032176;28;20029;-75
2023/09/10 08:14:22;;;;;;;77.15;35.53;;;;;;;20.61;100.00;101539.50;5031940;28;20083;-75
2023/09/10 08:16:47;;;;;;;69.40;33.60;;;;;;;20.61;100.00;101522.25;5030837;28;20107;-75
2023/09/10 08:19:13;;;;;;;80.43;34.15;;;;;;;20.85;100.00;101534.66;5032096;28;20514;-75
2023/09/10 08:21:39;;;;;;;78.05;34.78;;;;;;;20.87;100.00;101537.16;5030591;28;20037;-75
2023/09/10 08:24:04;;;;;;;80.75;33.22;;;;;;;20.82;100.00;101542.53;5030987;28;20033;-75
2023/09/10 08:26:30;;;;;;;92.82;37.38;;;;;;;20.79;100.00;101538.41;5014307;28;20484;-75
2023/09/10 08:28:55;;;;;;;77.28;33.97;;;;;;;20.84;100.00;101541.22;5030734;28;20029;-75
2023/09/10 08:31:21;;;;;;;77.53;33.28;;;;;;;20.86;100.00;101535.50;5033056;28;20028;-75
2023/09/10 08:33:46;;;;;;;74.78;32.70;;;;;;;20.90;100.00;101544.06;5033649;28;20042;-75
2023/09/10 08:36:11;;;;;;;63.33;30.80;;;;;;;20.85;100.00;101540.13;5018237;28;20095;-75
2023/09/10 08:38:37;;;;;;;63.40;31.40;;;;;;;20.71;100.00;101524.34;5036332;28;20033;-75
2023/09/10 08:41:20;;;;;;;55.72;29.48;;;;;;;20.82;100.00;101543.38;5018634;28;20029;-75
2023/09/10 08:43:54;;;;;;;58.50;30.30;;;;;;;20.64;100.00;101552.66;5038021;28;20021;-75
2023/09/10 08:46:22;;;;;;;56.17;29.40;;;;;;;20.64;100.00;101552.66;5040636;28;20021;-75
2023/09/10 08:48:50;;;;;;;53.58;27.77;;;;;;;20.62;100.00;101560.28;5036866;28;20194;-75
2023/09/10 08:51:15;;;;;;;65.57;29.67;;;;;;;20.65;100.00;101559.78;5038560;28;20179;-75
2023/09/10 08:53:44;;;;;;;66.18;31.42;;;;;;;20.66;100.00;101560.59;5035865;28;20034;-75
2023/09/10 08:56:11;;;;;;;67.45;31.52;;;;;;;20.57;100.00;101568.41;5034762;28;20029;-75
2023/09/10 08:58:38;;;;;;;69.43;32.08;;;;;;;20.52;100.00;101562.84;5034775;28;20104;-75
2023/09/10 09:01:04;;;;;;;60.95;30.15;;;;;;;20.53;100.00;101561.78;5036055;28;20051;-76
2023/09/10 09:03:30;;;;;;;56.22;27.02;;;;;;;20.61;100.00;101557.81;5035738;28;20400;-76
2023/09/10 09:06:02;;;;;;;56.47;27.25;;;;;;;20.70;100.00;101556.31;5034253;28;20032;-75
2023/09/10 09:08:30;;;;;;;50.78;25.83;;;;;;;20.85;100.00;101558.47;5048317;28;20059;-75
2023/09/10 09:10:58;;;;;;;53.67;26.42;;;;;;;20.83;100.00;101544.22;5035885;28;20033;-75
2023/09/10 09:13:25;;;;;;;52.60;26.77;;;;;;;20.80;100.00;101531.03;5035694;28;20033;-75
2023/09/10 09:15:52;;;;;;;55.20;26.48;;;;;;;20.98;100.00;101562.78;5034673;28;20099;-75
2023/09/10 09:18:18;;;;;;;54.80;26.60;;;;;;;20.96;100.00;101562.19;5034779;28;20103;-75
2023/09/10 09:20:46;;;;;;;57.40;26.33;;;;;;;21.01;100.00;101560.38;5034975;28;20033;-75
2023/09/10 09:23:21;;;;;;;52.80;24.35;;;;;;;20.81;100.00;101554.56;5036473;28;20026;-75
2023/09/10 09:25:47;;;;;;;51.78;24.15;;;;;;;20.92;100.00;101559.13;5036172;28;20032;-75
2023/09/10 09:28:13;;;;;;;51.85;24.70;;;;;;;21.04;100.00;101561.78;5035634;28;20143;-75
2023/09/10 09:30:39;;;;;;;55.42;25.17;;;;;;;20.94;100.00;101553.41;5034580;28;20084;-75
2023/09/10 09:33:05;;;;;;;60.17;28.15;;;;;;;20.96;100.00;101559.44;5034616;28;20032;-75
2023/09/10 09:35:33;;;;;;;56.58;25.98;;;;;;;21.00;100.00;101553.25;5034811;28;20041;-75
2023/09/10 09:38:13;;;;;;;59.75;27.00;;;;;;;21.09;100.00;101561.84;5018382;28;20094;-75
2023/09/10 09:40:39;;;;;;;61.50;27.23;;;;;;;20.98;100.00;101558.13;5034725;28;20017;-75
2023/09/10 09:43:09;;;;;;;59.42;28.92;;;;;;;20.90;100.00;101566.75;5035927;28;20028;-75
2023/09/10 09:45:35;;;;;;;60.80;27.33;;;;;;;20.85;100.00;101562.03;5035391;28;20423;-75
2023/09/10 09:48:04;;;;;;;61.75;28.40;;;;;;;20.92;100.00;101569.25;5036737;28;20033;-75
2023/09/10 09:50:30;;;;;;;57.67;27.55;;;;;;;20.87;100.00;101550.84;5019371;28;20134;-75
2023/09/10 09:52:56;;;;;;;59.45;28.63;;;;;;;21.00;100.00;101561.44;5050089;28;20026;-75
2023/09/10 09:55:22;;;;;;;58.50;28.55;;;;;;;20.95;100.00;101564.09;5039907;28;20033;-75
2023/09/10 09:57:50;;;;;;;46.25;25.40;;;;;;;20.95;100.00;101558.63;5036432;28;20040;-75
2023/09/10 10:00:16;;;;;;;42.88;24.10;;;;;;;20.91;100.00;101534.75;5067737;28;20025;-75
2023/09/10 10:02:43;;;;;;;37.17;23.25;;;;;;;20.91;100.00;101534.75;5035493;28;20025;-75
2023/09/10 10:05:09;;;;;;;40.40;23.55;;;;;;;21.04;100.00;101553.56;5035919;28;20032;-74
2023/09/10 10:07:40;;;;;;;38.17;23.40;;;;;;;20.96;100.00;101541.16;5036382;28;20112;-75
2023/09/10 10:10:07;;;;;;;33.83;21.15;;;;;;;21.24;100.00;101559.34;5036251;28;20041;-75
2023/09/10 10:12:33;;;;;;;34.78;22.48;;;;;;;21.11;100.00;101555.03;5035137;28;20037;-75
2023/09/10 10:15:02;;;;;;;33.42;21.13;;;;;;;21.14;100.00;101559.19;5038400;28;20028;-75
2023/09/10 10:17:29;;;;;;;36.25;24.15;;;;;;;21.11;100.00;101565.97;5035656;28;20033;-75
2023/09/10 10:19:56;;;;;;;37.03;24.70;;;;;;;21.08;100.00;101566.47;5034797;28;20368;-74
2023/09/10 10:22:22;;;;;;;37.88;25.13;;;;;;;20.96;100.00;101568.50;5035062;28;20036;-75
2023/09/10 10:24:48;;;;;;;39.63;24.92;;;;;;;20.95;100.00;101546.84;5035438;28;20120;-75
2023/09/10 10:27:14;;;;;;;35.40;23.60;;;;;;;21.07;100.00;101569.47;5036505;28;20029;-75
2023/09/10 10:29:40;;;;;;;35.47;23.85;;;;;;;21.04;100.00;101568.06;5002627;28;20444;-75
2023/09/10 10:32:24;;;;;;;33.83;22.73;;;;;;;20.98;100.00;101566.34;5042269;28;20033;-75
2023/09/10 10:34:57;;;;;;;32.28;23.38;;;;;;;20.67;100.00;101558.72;5054778;28;20029;-74
2023/09/10 10:37:52;;;;;;;29.00;20.92;;;;;;;20.98;100.00;101563.59;5030753;28;20013;-74
2023/09/10 10:40:28;;;;;;;30.85;21.63;;;;;;;21.06;100.00;101574.13;5042721;28;20407;-75
2023/09/10 10:43:01;;;;;;;31.20;21.27;;;;;;;21.17;100.00;101569.63;5038774;28;20091;-74
2023/09/10 10:45:30;;;;;;;29.88;21.02;;;;;;;21.26;100.00;101570.88;5039022;28;20116;-75
2023/09/10 10:48:03;;;;;;;27.98;20.52;;;;;;;21.22;100.00;101568.88;5039616;28;20029;-75
2023/09/10 10:50:31;;;;;;;32.75;23.42;;;;;;;21.17;100.00;101577.03;5038405;28;20030;-74
2023/09/10 10:53:09;;;;;;;34.30;23.27;;;;;;;21.12;100.00;101583.22;5037303;28;20055;-75
2023/09/10 10:55:36;;;;;;;34.15;22.80;;;;;;;20.99;100.00;101584.44;5051342;28;20041;-74
2023/09/10 10:58:02;;;;;;;34.90;23.45;;;;;;;20.98;100.00;101590.13;5018759;28;20026;-75